14°C
Porth, Newquay, Cornwall. UK  Tell A Friend
 Ad **Ad
Updated19/10/2017 15:15 
 


Nearby METAR Reports From


Metar Station     Metar Station     Metar Station     Metar Station     Metar Station
EGHQ Newquay     EGDR Culdrose (navy)     EGDX ST Athan raf     EGDY Yeovitilton (navy)     EGFF Cardiff
EGHH Bournemouth     EGBB Birmingham     EGKA Shoreham-By-Sea     EGOP Pembry Sands     EGTE Exeter Airport
EGGD Bristol     EGHE Scilly     EGJA Alderney     EGJB Guernsey     EGJJ Jersey
France       LFRC Cherbourg/Mauper     LFRB Brest/Guipavas     LFRO Lannion/Servel        
More Metars Here                                
EGHQ - Newquay, United Kingdom
Updated: 19/10/2017 15:20
Rain, Mostly cloudy
Rain, Mostly cloudy
 Wind from SSE
Wind: SSE 28 mph , 44 km/h, Gust: 41 mph , 67 km/h, 24 kts
Temperature: 13°C
Dew Point: 12°C
Humidity: 94%
Barometer: 994 hPa
Summary: Rain
Clouds: Mostly Cloudy
Visibility: 2 miles , 4 km
Cloud details: Mostly Cloudy 122 m
2017/10/19 14:20 EGHQ 191420Z 16024G36KT 4000 RA BKN004 13/12 Q0994
EGDR - Culdrose (navy), United Kingdom
Updated: 19/10/2017 14:38
Rain drizzle, Overcast
Rain drizzle, Overcast
 Wind from SSE
Wind: SSE 25 mph , 41 km/h, Gust: 48 mph , 78 km/h, 22 kts
Temperature: 14°C
Dew Point: 13°C
Humidity: 94%
Barometer: 994 hPa
Summary: Rain Drizzle
Clouds: Overcast
Visibility: 1 mile , 2 km
Cloud details: Partly Cloudy 61 m
Mostly Cloudy 122 m
Overcast 244 m
2017/10/19 13:38 EGDR 191338Z 16022G42KT 1500 RADZ SCT002 BKN004 OVC008 14/13 Q0994 AMB NOSIG
 
EGHC - Lands End, United Kingdom
Updated: 19/10/2017 15:20
Light rain, Mostly cloudy
Light rain, Mostly cloudy
 Wind from SSW
Wind: SSW 29 mph , 46 km/h, Gust: 46 mph , 74 km/h, 25 kts
Temperature: 13°C
Dew Point: 13°C
Humidity: 100%
Summary: Light Rain
Clouds: Mostly Cloudy
Visibility: 5 miles , 8 km
Cloud details: Partly Cloudy 91 m
Mostly Cloudy 244 m
2017/10/19 14:20 EGHC 191420Z 20025G40KT 8000 -RA SCT003 BKN008 13/13 Q993
EGHE - Scilly Saint Mar, United Kingdom
Updated: 19/10/2017 15:20
Mostly Cloudy
Mostly Cloudy
 Wind from SW
Wind: SW 35 mph , 56 km/h, Gust: 46 mph , 74 km/h, 30 kts
Temperature: 14°C
Dew Point: 12°C
Humidity: 88%
Barometer: 992 hPa
Clouds: Mostly Cloudy
Visibility: 6 miles , 9 km
Cloud details: Few Clouds 122 m
Mostly Cloudy 366 m
Mostly Cloudy 549 m
2017/10/19 14:20 EGHE 191420Z 23030G40KT 9000 FEW004 BKN012 BKN018 14/12 Q0992
 
EGTE - Exeter Airport, United Kingdom
Updated: 19/10/2017 15:20
Light rain, Mostly cloudy
Light rain, Mostly cloudy
 Wind from S
Wind: S 16 mph , 26 km/h, 14 kts
Temperature: 14°C
Dew Point: 13°C
Humidity: 94%
Barometer: 998 hPa
Summary: Light Rain
Clouds: Mostly Cloudy
Visibility: 6 miles , 10 km
Cloud details: Partly Cloudy 274 m
Mostly Cloudy 610 m
2017/10/19 14:20 EGTE 191420Z 17014KT 9999 -RA SCT009 BKN020 14/13 Q0998
EGOP - Pembry Sands, United Kingdom
Updated: 19/10/2017 14:50
Rain, Mostly cloudy
Rain, Mostly cloudy
 Wind from SE
Wind: SE 15 mph , 24 km/h, 13 kts
Temperature: 14°C
Dew Point: 13°C
Humidity: 94%
Barometer: 996 hPa
Summary: Rain
Clouds: Mostly Cloudy
Visibility: 4 miles , 7 km
Cloud details: Few Clouds 366 m
Mostly Cloudy 2134 m
2017/10/19 13:50 EGOP 191350Z 13013KT 7000 RA FEW012 BKN070 14/13 Q0996 WHT
 
EGDX - St Athan Raf, United Kingdom
Updated: 19/10/2017 14:50
Nearby showers, Mostly cloudy
Nearby showers, Mostly cloudy
 Wind from ESE
Wind: ESE 8 mph , 13 km/h, 7 kts
Temperature: 14°C
Dew Point: 14°C
Humidity: 100%
Barometer: 998 hPa
Summary: Nearby Showers
Clouds: Mostly Cloudy
Visibility: 6 miles , 9 km
Cloud details: Few Clouds 122 m
Mostly Cloudy 396 m
2017/10/19 13:50 EGDX 191350Z 12007KT 9000 VCSH FEW004 BKN013 14/14 Q0998 GRN
EGFF - Cardiff-Wales Ar, United Kingdom
Updated: 19/10/2017 15:20
Thunderstorm
Thunderstorm
 Wind from SSE
Wind: SSE 10 mph , 17 km/h, 9 kts
Temperature: 14°C
Dew Point: 13°C
Humidity: 94%
Barometer: 998 hPa
Clouds: Thunderstorm
Visibility: 6 miles , 10 km
Cloud details: Partly Cloudy 610 m
2017/10/19 14:20 EGFF 191420Z AUTO 15009KT 9999 SCT020/// //////CB 14/13 Q0998
 
EGDY - Yeovilton (navy), United Kingdom
Updated: 19/10/2017 14:50
Mostly Cloudy
Mostly Cloudy
 Wind from S
Wind: S 9 mph , 15 km/h, 8 kts
Temperature: 15°C
Dew Point: 13°C
Humidity: 88%
Barometer: 999 hPa
Clouds: Mostly Cloudy
Visibility: 6 miles , 10 km
Cloud details: Few Clouds 305 m
Partly Cloudy 1524 m
Mostly Cloudy 2743 m
2017/10/19 13:50 EGDY 191350Z 17008KT 9999 FEW010 SCT050 BKN090 15/13 Q0999 BLU BECMG 9999 SCT010 GRN
EGGD - Bristol/Lulsgate, United Kingdom
Updated: 19/10/2017 15:20
Few Clouds
Few Clouds
 Wind from S
Wind: S 13 mph , 20 km/h, 11 kts
Temperature: 13°C
Dew Point: 13°C
Humidity: 100%
Barometer: 999 hPa
Clouds: Few Clouds
Visibility: 6 miles , 10 km
Cloud details: Few Clouds 396 m
2017/10/19 14:20 EGGD 191420Z AUTO 18011KT 9999 FEW013 13/13 Q0999
 
EGBB - Birmingham Airpo, United Kingdom
Updated: 19/10/2017 14:50
Mist, Mostly cloudy
Mist, Mostly cloudy
 Wind from ESE
Wind: ESE 10 mph , 17 km/h, 9 kts
Temperature: 15°C
Dew Point: 15°C
Humidity: 100%
Barometer: 999 hPa
Summary: Mist
Clouds: Mostly Cloudy
Visibility: 2 miles , 4 km
Cloud details: Mostly Cloudy 274 m
2017/10/19 13:50 EGBB 191350Z 12009KT 080V150 3600 BR BKN009 15/15 Q0999
EGHH - Bournemouth Airp, United Kingdom
Updated: 19/10/2017 15:20
Partly Cloudy
Partly Cloudy
 Wind from SSW
Wind: SSW 9 mph , 15 km/h, 8 kts
Temperature: 16°C
Dew Point: 14°C
Humidity: 88%
Barometer: 1001 hPa
Clouds: Partly Cloudy
Visibility: 6 miles , 10 km
Cloud details: Few Clouds 274 m
Partly Cloudy 427 m
2017/10/19 14:20 EGHH 191420Z 20008KT 9999 FEW009 SCT014 16/14 Q1001
 
EGKA - Shoreham-By-Sea, United Kingdom
Updated: 19/10/2017 15:20
Haze, Mostly cloudy
Haze, Mostly cloudy
 Wind from SSW
Wind: SSW 17 mph , 28 km/h, 15 kts
Temperature: 16°C
Dew Point: 15°C
Humidity: 94%
Barometer: 1002 hPa
Summary: Haze
Clouds: Mostly Cloudy
Visibility: 2 miles , 4 km
Cloud details: Partly Cloudy 213 m
Mostly Cloudy 244 m
2017/10/19 14:20 EGKA 191420Z 21015KT 3500 HZ SCT007 BKN008 16/15 Q1002
EGJA - Alderney/Channel, United Kingdom
Updated: 19/10/2017 14:50
Few Clouds
Few Clouds
 Wind from S
Wind: S 21 mph , 33 km/h, 18 kts
Clouds: Few Clouds
Visibility: 6 miles , 10 km
Cloud details: Few Clouds 213 m
2017/10/19 13:50 EGJA 191350Z 18018KT 9999 FEW007 15/// Q1002
 
EGJB - Guernsey Airport, United Kingdom
Updated: 19/10/2017 15:20
Light rain, Partly cloudy
Light rain, Partly cloudy
 Wind from S
Wind: S 20 mph , 31 km/h, 17 kts
Temperature: 16°C
Dew Point: 13°C
Humidity: 83%
Barometer: 1001 hPa
Summary: Light Rain
Clouds: Partly Cloudy
Visibility: 6 miles , 10 km
Cloud details: Few Clouds 366 m
Partly Cloudy 1372 m
2017/10/19 14:20 EGJB 191420Z 17017KT 9999 -RA FEW012 SCT045 16/13 Q1001
EGJJ - Jersey Airport, United Kingdom
Updated: 19/10/2017 15:20
Few Clouds
Few Clouds
 Wind from S
Wind: S 17 mph , 28 km/h, 15 kts
Temperature: 17°C
Dew Point: 13°C
Humidity: 77%
Barometer: 1002 hPa
Clouds: Few Clouds
Visibility: 6 miles , 10 km
Cloud details: Few Clouds 579 m
2017/10/19 14:20 EGJJ 191420Z 17015KT 9999 FEW019 17/13 Q1002
 
LFRC - Cherbourg/Mauper, France
Updated: 19/10/2017 15:00
Overcast
Overcast
 Wind from SSW
Wind: SSW 17 mph , 28 km/h, 15 kts
Temperature: 16°C
Dew Point: 11°C
Humidity: 72%
Barometer: 1003 hPa
Clouds: Overcast
Visibility: 6 miles , 10 km
Cloud details: Few Clouds 701 m
Overcast 6706 m
2017/10/19 14:00 LFRC 191400Z AUTO 20015KT 170V230 9999 FEW023 OVC220 16/11 Q1003 BECMG 18022G35KT RA
LFRB - Brest/Guipavas, France
Updated: 19/10/2017 15:00
Rain, Mist, Thunderstorm
Rain, Mist, Thunderstorm
 Wind from S
Wind: S 24 mph , 39 km/h, 21 kts
Temperature: 14°C
Dew Point: 13°C
Humidity: 94%
Barometer: 999 hPa
Summary: Rain, Mist
Clouds: Thunderstorm
Visibility: 2 miles , 3 km
Cloud details: Overcast 213 m
2017/10/19 14:00 LFRB 191400Z AUTO 18021KT 2900 RA BR OVC007/// ///TCU 14/13 Q0999 TEMPO 18025G40KT 4000 RA BKN005 OVC008
 
LFRO - Lannion/Servel, France
Updated: 19/10/2017 15:00
Overcast
Overcast
 Wind from S
Wind: S 17 mph , 28 km/h, 15 kts
Temperature: 16°C
Dew Point: 12°C
Humidity: 77%
Barometer: 1001 hPa
Clouds: Overcast
Visibility: 6 miles , 10 km
Cloud details: Partly Cloudy 762 m
Mostly Cloudy 914 m
Overcast 2804 m
2017/10/19 14:00 LFRO 191400Z AUTO 17015KT 140V200 9999 SCT025/// BKN030/// OVC092/// 16/12 Q1001 TEMPO 18025G40KT 4000 RA BKN006 OVC010

# Note Plymouth airport closed 23/12/2011

Metar, brief description

METAR is a format for reporting weather information. A METAR weather report is predominantly used by pilots in fulfillment of a part of a pre-flight weather briefing, and by meteorologists, who use aggregated METAR information to assist in weather forecasting.

Raw METAR is the most popular format in the world for the transmission of weather data. Each METAR report contains essential information about the current weather conditions: Temperature, Dew Point, Barometric Pressure, Wind Speed and Direction, Visibility, Clouds Cover, Current Weather (Rain, Thunderstorms, Hail, Snow and so on...), here is an example of a raw metar report for EGHQ (Newquay airport).
METAR not available